createdAt,value
2023-11-17T00:00:03.543Z,57.30
2023-11-17T00:01:03.501Z,65.80
2023-11-17T00:02:03.524Z,57.48
2023-11-17T00:03:03.653Z,61.73
2023-11-17T00:04:03.666Z,63.40
2023-11-17T00:05:03.505Z,68.93
2023-11-17T00:06:03.485Z,56.81
2023-11-17T00:07:03.500Z,63.00
2023-11-17T00:08:03.588Z,58.78
2023-11-17T00:09:03.434Z,65.07
2023-11-17T00:10:03.506Z,57.66
2023-11-17T00:11:03.424Z,64.92
2023-11-17T00:12:03.449Z,61.77
2023-11-17T00:13:03.437Z,62.10
2023-11-17T00:14:03.454Z,56.91
2023-11-17T00:15:03.455Z,68.79
2023-11-17T00:16:03.467Z,65.92
2023-11-17T00:17:03.489Z,63.18
2023-11-17T00:18:03.430Z,70.06
2023-11-17T00:19:03.412Z,63.44
2023-11-17T00:20:03.417Z,56.52
2023-11-17T00:21:03.394Z,56.54
2023-11-17T00:22:03.402Z,56.53
2023-11-17T00:23:03.415Z,65.62
2023-11-17T00:24:03.392Z,56.53
2023-11-17T00:25:03.431Z,56.30
2023-11-17T00:26:03.384Z,67.02
2023-11-17T00:27:03.346Z,64.15
2023-11-17T00:28:03.399Z,62.19
2023-11-17T00:29:03.352Z,58.21
2023-11-17T00:30:03.370Z,57.53
2023-11-17T00:31:03.403Z,61.21
2023-11-17T00:32:03.354Z,66.47
2023-11-17T00:33:03.358Z,57.69
2023-11-17T00:34:03.432Z,56.81
2023-11-17T00:35:03.390Z,72.55
2023-11-17T00:36:03.324Z,65.05
2023-11-17T00:37:04.419Z,60.72
2023-11-17T00:38:03.301Z,60.06
2023-11-17T00:39:03.309Z,61.99
2023-11-17T00:40:03.371Z,70.85
2023-11-17T00:41:05.749Z,56.93
2023-11-17T00:42:03.269Z,61.57
2023-11-17T00:43:03.269Z,64.54
2023-11-17T00:44:03.266Z,56.74
2023-11-17T00:45:03.254Z,56.53
2023-11-17T00:46:03.351Z,56.47
2023-11-17T00:47:03.326Z,56.42
2023-11-17T00:48:03.283Z,56.36
2023-11-17T00:49:03.339Z,61.15
2023-11-17T00:50:03.227Z,56.72
2023-11-17T00:51:03.255Z,64.29
2023-11-17T00:52:03.278Z,56.53
2023-11-17T00:53:03.227Z,56.23
2023-11-17T00:54:03.253Z,56.61
2023-11-17T00:55:03.291Z,61.40
2023-11-17T00:56:03.223Z,56.59
2023-11-17T00:57:03.199Z,64.79
2023-11-17T00:58:03.282Z,56.22
2023-11-17T00:59:03.240Z,56.53
2023-11-17T01:00:03.198Z,67.90
2023-11-17T01:01:03.236Z,64.37
2023-11-17T01:02:03.236Z,56.06
2023-11-17T01:03:03.204Z,55.95
2023-11-17T01:04:03.202Z,56.37
2023-11-17T01:05:03.176Z,65.05
2023-11-17T01:06:03.179Z,56.02
2023-11-17T01:07:03.202Z,56.04
2023-11-17T01:08:03.113Z,56.08
2023-11-17T01:09:03.153Z,55.99
2023-11-17T01:10:03.192Z,61.59
2023-11-17T01:11:03.107Z,61.53
2023-11-17T01:12:03.146Z,68.13
2023-11-17T01:13:03.220Z,56.61
2023-11-17T01:14:03.093Z,55.90
2023-11-17T01:15:03.137Z,55.97
2023-11-17T01:16:03.121Z,60.82
2023-11-17T01:17:03.160Z,67.77
2023-11-17T01:18:03.143Z,65.02
2023-11-17T01:19:03.098Z,57.04
2023-11-17T01:20:03.103Z,63.84
2023-11-17T01:21:03.113Z,61.05
2023-11-17T01:22:03.081Z,67.56
2023-11-17T01:23:03.082Z,56.31
2023-11-17T01:24:03.045Z,55.94
2023-11-17T01:25:03.130Z,56.09
2023-11-17T01:26:03.056Z,56.12
2023-11-17T01:27:03.064Z,60.96
2023-11-17T01:28:03.051Z,63.51
2023-11-17T01:29:03.049Z,56.31
2023-11-17T01:30:03.046Z,68.33
2023-11-17T01:31:03.046Z,56.05
2023-11-17T01:32:03.004Z,61.83
2023-11-17T01:33:03.080Z,56.36
2023-11-17T01:34:04.059Z,56.23
2023-11-17T01:35:03.038Z,70.58
2023-11-17T01:36:03.002Z,60.64
2023-11-17T01:37:03.046Z,55.94
2023-11-17T01:38:02.993Z,60.35
2023-11-17T01:39:03.003Z,65.67
2023-11-17T01:40:03.019Z,57.19
2023-11-17T01:41:02.968Z,56.49
2023-11-17T01:42:02.972Z,70.62
2023-11-17T01:43:02.992Z,63.39
2023-11-17T01:44:02.949Z,59.50
2023-11-17T01:45:03.046Z,63.33
2023-11-17T01:46:03.035Z,64.78
2023-11-17T01:47:03.088Z,63.65
2023-11-17T01:48:02.988Z,69.74
2023-11-17T01:49:02.949Z,56.52
2023-11-17T01:50:02.936Z,61.05
2023-11-17T01:51:04.122Z,63.84
2023-11-17T01:52:02.950Z,59.43
2023-11-17T01:53:05.454Z,68.63
2023-11-17T01:54:02.916Z,69.87
2023-11-17T01:55:02.923Z,60.35
2023-11-17T01:56:02.902Z,66.36
2023-11-17T01:57:02.867Z,66.92
2023-11-17T01:58:02.995Z,61.28
2023-11-17T01:59:02.865Z,59.50
2023-11-17T02:00:02.891Z,66.46
2023-11-17T02:01:03.119Z,67.89
2023-11-17T02:02:02.917Z,67.73
2023-11-17T02:03:03.041Z,65.26
2023-11-17T02:04:02.898Z,63.76
2023-11-17T02:05:02.892Z,68.86
2023-11-17T02:06:02.836Z,72.10
2023-11-17T02:07:02.860Z,61.00
2023-11-17T02:08:02.848Z,68.36
2023-11-17T02:09:02.829Z,73.70
2023-11-17T02:10:02.913Z,60.72
2023-11-17T02:11:02.827Z,58.21
2023-11-17T02:12:02.803Z,66.16
2023-11-17T02:13:02.822Z,71.67
2023-11-17T02:14:02.823Z,65.43
2023-11-17T02:15:02.815Z,56.82
2023-11-17T02:16:02.963Z,68.08
2023-11-17T02:17:02.829Z,55.94
2023-11-17T02:18:02.805Z,55.86
2023-11-17T02:19:02.815Z,62.42
2023-11-17T02:20:02.736Z,59.67
2023-11-17T02:21:02.741Z,66.18
2023-11-17T02:22:02.816Z,62.88
2023-11-17T02:23:02.722Z,61.88
2023-11-17T02:24:02.756Z,65.52
2023-11-17T02:25:02.933Z,63.03
2023-11-17T02:26:02.882Z,56.96
2023-11-17T02:27:02.770Z,59.60
2023-11-17T02:28:02.797Z,56.56
2023-11-17T02:29:02.788Z,58.09
2023-11-17T02:30:02.689Z,60.32
2023-11-17T02:31:02.870Z,60.07
2023-11-17T02:32:02.675Z,65.33
2023-11-17T02:33:02.773Z,64.02
2023-11-17T02:34:02.768Z,60.01
2023-11-17T02:35:02.797Z,63.19
2023-11-17T02:36:02.714Z,57.15
2023-11-17T02:37:02.734Z,56.28
2023-11-17T02:38:02.717Z,65.23
2023-11-17T02:39:02.642Z,56.28
2023-11-17T02:40:02.758Z,57.84
2023-11-17T02:41:02.631Z,67.99
2023-11-17T02:42:02.684Z,65.39
2023-11-17T02:43:02.660Z,57.46
2023-11-17T02:44:02.640Z,56.91
2023-11-17T02:45:02.645Z,56.56
2023-11-17T02:46:02.740Z,56.76
2023-11-17T02:47:02.703Z,56.52
2023-11-17T02:48:02.721Z,56.29
2023-11-17T02:49:02.642Z,64.60
2023-11-17T02:50:02.635Z,56.72
2023-11-17T02:51:02.635Z,56.00
2023-11-17T02:52:02.653Z,55.94
2023-11-17T02:53:02.643Z,62.11
2023-11-17T02:54:02.649Z,62.12
2023-11-17T02:55:02.687Z,64.56
2023-11-17T02:56:02.577Z,55.84
2023-11-17T02:57:02.591Z,56.23
2023-11-17T02:58:02.619Z,56.13
2023-11-17T02:59:02.544Z,60.34
2023-11-17T03:00:02.550Z,65.08
2023-11-17T03:01:02.663Z,55.88
2023-11-17T03:02:02.618Z,55.97
2023-11-17T03:03:02.620Z,56.12
2023-11-17T03:04:02.646Z,56.31
2023-11-17T03:05:02.540Z,57.11
2023-11-17T03:06:02.548Z,56.75
2023-11-17T03:07:02.556Z,56.84
2023-11-17T03:08:02.576Z,62.71
2023-11-17T03:09:02.543Z,58.16
2023-11-17T03:10:02.547Z,63.38
2023-11-17T03:11:02.648Z,64.99
2023-11-17T03:12:02.515Z,66.26
2023-11-17T03:13:02.535Z,61.75
2023-11-17T03:14:02.500Z,66.71
2023-11-17T03:15:02.478Z,58.80
2023-11-17T03:16:02.552Z,69.94
2023-11-17T03:17:02.627Z,60.52
2023-11-17T03:18:02.499Z,71.02
2023-11-17T03:19:02.496Z,67.75
2023-11-17T03:20:02.464Z,59.72
2023-11-17T03:21:02.441Z,61.53
2023-11-17T03:22:02.481Z,61.21
2023-11-17T03:23:02.480Z,56.08
2023-11-17T03:24:02.428Z,57.29
2023-11-17T03:25:02.475Z,58.05
2023-11-17T03:26:02.410Z,65.53
2023-11-17T03:27:03.431Z,56.57
2023-11-17T03:28:02.446Z,61.81
2023-11-17T03:29:02.425Z,57.97
2023-11-17T03:30:02.404Z,60.35
2023-11-17T03:31:02.414Z,61.19
2023-11-17T03:32:02.533Z,61.95
2023-11-17T03:33:02.538Z,72.05
2023-11-17T03:34:02.430Z,56.72
2023-11-17T03:35:02.393Z,62.09
2023-11-17T03:36:02.346Z,58.95
2023-11-17T03:37:02.466Z,61.25
2023-11-17T03:38:02.410Z,56.17
2023-11-17T03:39:02.344Z,55.87
2023-11-17T03:40:02.396Z,56.07
2023-11-17T03:41:02.365Z,62.35
2023-11-17T03:42:02.389Z,67.42
2023-11-17T03:43:02.388Z,65.56
2023-11-17T03:44:02.345Z,62.19
2023-11-17T03:45:02.326Z,62.74
2023-11-17T03:46:02.399Z,56.89
2023-11-17T03:47:02.409Z,56.69
2023-11-17T03:48:02.383Z,64.94
2023-11-17T03:49:02.365Z,58.67
2023-11-17T03:50:02.316Z,62.36
2023-11-17T03:51:02.324Z,60.31
2023-11-17T03:52:02.340Z,69.44
2023-11-17T03:53:02.302Z,60.71
2023-11-17T03:54:03.291Z,63.01
2023-11-17T03:55:02.344Z,62.44
2023-11-17T03:56:02.265Z,71.25
2023-11-17T03:57:02.286Z,65.49
2023-11-17T03:58:02.274Z,60.96
2023-11-17T03:59:02.276Z,61.13
2023-11-17T04:00:02.248Z,61.53
2023-11-17T04:01:02.305Z,64.33
2023-11-17T04:02:02.317Z,60.61
2023-11-17T04:03:02.391Z,62.45
2023-11-17T04:04:02.290Z,58.67
2023-11-17T04:05:02.227Z,67.65
2023-11-17T04:06:02.228Z,69.87
2023-11-17T04:07:02.237Z,64.52
2023-11-17T04:08:02.194Z,66.51
2023-11-17T04:09:02.239Z,73.31
2023-11-17T04:10:02.301Z,67.03
2023-11-17T04:11:02.220Z,68.11
2023-11-17T04:12:02.164Z,60.65
2023-11-17T04:13:02.256Z,64.96
2023-11-17T04:14:02.188Z,64.05
2023-11-17T04:15:03.664Z,61.37
2023-11-17T04:16:02.320Z,58.67
2023-11-17T04:17:02.277Z,60.25
2023-11-17T04:18:02.185Z,71.87
2023-11-17T04:19:02.187Z,67.37
2023-11-17T04:20:02.167Z,65.68
2023-11-17T04:21:02.168Z,64.73
2023-11-17T04:22:02.163Z,66.89
2023-11-17T04:23:02.150Z,66.95
2023-11-17T04:24:02.135Z,67.58
2023-11-17T04:25:02.158Z,66.58
2023-11-17T04:26:02.123Z,65.78
2023-11-17T04:27:02.126Z,69.50
2023-11-17T04:28:02.148Z,64.94
2023-11-17T04:29:02.144Z,68.04
2023-11-17T04:30:02.099Z,66.99
2023-11-17T04:31:02.116Z,61.80
2023-11-17T04:32:02.096Z,73.71
2023-11-17T04:33:02.102Z,66.21
2023-11-17T04:34:02.134Z,65.95
2023-11-17T04:35:02.101Z,65.62
2023-11-17T04:36:02.089Z,68.45
2023-11-17T04:37:02.108Z,72.30
2023-11-17T04:38:02.078Z,64.56
2023-11-17T04:39:02.115Z,65.38
2023-11-17T04:40:02.114Z,61.20
2023-11-17T04:41:02.053Z,63.21
2023-11-17T04:42:02.069Z,65.24
2023-11-17T04:43:02.047Z,69.93
2023-11-17T04:44:02.045Z,69.34
2023-11-17T04:45:02.008Z,64.34
2023-11-17T04:46:02.092Z,69.66
2023-11-17T04:47:02.074Z,68.61
2023-11-17T04:48:02.047Z,62.00
2023-11-17T04:49:02.048Z,71.99
2023-11-17T04:50:01.995Z,74.00
2023-11-17T04:51:02.007Z,68.70
2023-11-17T04:52:01.996Z,61.53
2023-11-17T04:53:01.996Z,65.40
2023-11-17T04:54:02.025Z,64.13
2023-11-17T04:55:02.020Z,63.06
2023-11-17T04:56:01.985Z,70.53
2023-11-17T04:57:02.024Z,63.25
2023-11-17T04:58:01.981Z,73.59
2023-11-17T04:59:01.958Z,71.45
2023-11-17T05:00:01.980Z,71.55
2023-11-17T05:01:02.038Z,69.56
2023-11-17T05:02:01.987Z,70.39
2023-11-17T05:03:02.038Z,69.09
2023-11-17T05:04:02.021Z,71.12
2023-11-17T05:05:01.970Z,66.95
2023-11-17T05:06:01.928Z,68.63
2023-11-17T05:07:01.977Z,72.39
2023-11-17T05:08:01.923Z,69.95
2023-11-17T05:09:01.900Z,72.43
2023-11-17T05:10:02.018Z,77.34
2023-11-17T05:11:01.905Z,68.75
2023-11-17T05:12:01.915Z,66.97
2023-11-17T05:13:01.951Z,74.44
2023-11-17T05:14:01.906Z,69.70
2023-11-17T05:15:01.923Z,71.32
2023-11-17T05:16:01.944Z,71.52
2023-11-17T05:17:01.911Z,72.17
2023-11-17T05:18:01.942Z,63.86
2023-11-17T05:19:01.893Z,72.98
2023-11-17T05:20:01.883Z,74.75
2023-11-17T05:21:01.891Z,71.82
2023-11-17T05:22:01.902Z,72.04
2023-11-17T05:23:02.860Z,78.59
2023-11-17T05:24:01.820Z,74.14
2023-11-17T05:25:01.905Z,73.21
2023-11-17T05:26:01.833Z,68.71
2023-11-17T05:27:01.837Z,71.88
2023-11-17T05:28:01.876Z,71.54
2023-11-17T05:29:01.828Z,73.91
2023-11-17T05:30:01.860Z,69.85
2023-11-17T05:31:01.905Z,69.17
2023-11-17T05:32:01.914Z,77.92
2023-11-17T05:33:01.821Z,79.20
2023-11-17T05:34:01.847Z,75.09
2023-11-17T05:35:01.851Z,76.78
2023-11-17T05:36:01.778Z,76.84
2023-11-17T05:37:01.815Z,76.32
2023-11-17T05:38:01.791Z,74.35
2023-11-17T05:39:01.776Z,70.57
2023-11-17T05:40:01.922Z,70.99
2023-11-17T05:41:01.773Z,72.40
2023-11-17T05:42:01.787Z,72.25
2023-11-17T05:43:01.793Z,74.64
2023-11-17T05:44:01.795Z,69.57
2023-11-17T05:45:01.797Z,75.74
2023-11-17T05:46:01.949Z,76.79
2023-11-17T05:47:01.837Z,72.72
2023-11-17T05:48:01.777Z,68.44
2023-11-17T05:49:01.736Z,78.32
2023-11-17T05:50:01.771Z,69.56
2023-11-17T05:51:01.728Z,71.16
2023-11-17T05:52:01.741Z,79.13
2023-11-17T05:53:01.753Z,71.32
2023-11-17T05:54:01.712Z,76.20
2023-11-17T05:55:01.736Z,69.74
2023-11-17T05:56:01.704Z,72.20
2023-11-17T05:57:01.681Z,69.10
2023-11-17T05:58:01.699Z,69.10
2023-11-17T05:59:01.918Z,76.90
2023-11-17T06:00:01.703Z,74.32
2023-11-17T06:01:01.695Z,72.80
2023-11-17T06:02:01.783Z,78.60
2023-11-17T06:03:01.819Z,77.30
2023-11-17T06:04:01.737Z,77.17
2023-11-17T06:05:01.856Z,65.52
2023-11-17T06:06:01.683Z,73.27
2023-11-17T06:07:01.704Z,78.41
2023-11-17T06:08:01.639Z,75.85
2023-11-17T06:09:01.648Z,68.22
2023-11-17T06:10:01.746Z,78.65
2023-11-17T06:11:01.653Z,78.51
2023-11-17T06:12:01.641Z,77.39
2023-11-17T06:13:01.652Z,74.19
2023-11-17T06:14:01.628Z,71.27
2023-11-17T06:15:01.631Z,74.25
2023-11-17T06:16:01.670Z,67.88
2023-11-17T06:17:01.709Z,71.97
2023-11-17T06:18:01.647Z,79.70
2023-11-17T06:19:01.632Z,72.94
2023-11-17T06:20:01.609Z,77.84
2023-11-17T06:21:01.621Z,77.22
2023-11-17T06:22:01.634Z,77.50
2023-11-17T06:23:01.648Z,80.38
2023-11-17T06:24:01.559Z,76.11
2023-11-17T06:25:01.657Z,73.67
2023-11-17T06:26:01.587Z,65.48
2023-11-17T06:27:01.585Z,74.51
2023-11-17T06:28:01.613Z,79.64
2023-11-17T06:29:02.805Z,80.36
2023-11-17T06:30:02.580Z,66.56
2023-11-17T06:31:01.577Z,78.37
2023-11-17T06:32:01.553Z,73.99
2023-11-17T06:33:01.609Z,73.95
2023-11-17T06:34:01.618Z,72.40
2023-11-17T06:35:01.543Z,78.22
2023-11-17T06:36:01.528Z,79.09
2023-11-17T06:37:01.530Z,79.43
2023-11-17T06:38:01.541Z,74.27
2023-11-17T06:39:01.531Z,73.37
2023-11-17T06:40:01.553Z,70.96
2023-11-17T06:41:01.528Z,75.09
2023-11-17T06:42:01.503Z,78.16
2023-11-17T06:43:01.552Z,81.27
2023-11-17T06:44:01.493Z,72.25
2023-11-17T06:45:01.515Z,73.61
2023-11-17T06:46:01.575Z,74.07
2023-11-17T06:47:01.675Z,72.66
2023-11-17T06:48:01.569Z,79.20
2023-11-17T06:49:01.600Z,76.92
2023-11-17T06:50:01.502Z,78.25
2023-11-17T06:51:01.604Z,70.54
2023-11-17T06:52:01.465Z,73.78
2023-11-17T06:53:01.480Z,81.05
2023-11-17T06:54:01.446Z,71.17
2023-11-17T06:55:02.502Z,73.31
2023-11-17T06:56:01.489Z,71.03
2023-11-17T06:57:01.585Z,75.86
2023-11-17T06:58:01.479Z,76.29
2023-11-17T06:59:01.443Z,64.85
2023-11-17T07:00:01.419Z,66.19
2023-11-17T07:01:01.493Z,79.14
2023-11-17T07:02:01.492Z,70.02
2023-11-17T07:03:01.521Z,75.09
2023-11-17T07:04:01.469Z,73.74
2023-11-17T07:05:01.403Z,69.82
2023-11-17T07:06:02.515Z,68.81
2023-11-17T07:07:01.417Z,72.04
2023-11-17T07:08:01.393Z,73.76
2023-11-17T07:09:01.386Z,77.06
2023-11-17T07:10:01.442Z,80.22
2023-11-17T07:11:01.413Z,67.09
2023-11-17T07:12:01.388Z,78.07
2023-11-17T07:13:01.426Z,72.23
2023-11-17T07:14:01.370Z,74.68
2023-11-17T07:15:01.349Z,79.83
2023-11-17T07:16:01.383Z,76.47
2023-11-17T07:17:01.412Z,78.84
2023-11-17T07:18:01.408Z,67.21
2023-11-17T07:19:01.365Z,74.73
2023-11-17T07:20:01.323Z,74.25
2023-11-17T07:21:01.315Z,73.66
2023-11-17T07:22:01.473Z,71.66
2023-11-17T07:23:01.323Z,74.88
2023-11-17T07:24:01.313Z,71.59
2023-11-17T07:25:01.350Z,74.88
2023-11-17T07:26:01.300Z,75.08
2023-11-17T07:27:01.305Z,75.93
2023-11-17T07:28:01.295Z,64.50
2023-11-17T07:29:01.309Z,71.56
2023-11-17T07:30:01.321Z,84.70
2023-11-17T07:31:01.328Z,77.29
2023-11-17T07:32:01.339Z,71.59
2023-11-17T07:33:01.305Z,63.10
2023-11-17T07:34:01.283Z,66.91
2023-11-17T07:35:01.255Z,76.41
2023-11-17T07:36:01.237Z,68.89
2023-11-17T07:37:01.331Z,71.16
2023-11-17T07:38:01.335Z,69.69
2023-11-17T07:39:01.255Z,69.87
2023-11-17T07:40:01.299Z,67.12
2023-11-17T07:41:01.235Z,71.09
2023-11-17T07:42:01.247Z,75.05
2023-11-17T07:43:01.254Z,75.71
2023-11-17T07:44:01.207Z,72.24
2023-11-17T07:45:01.204Z,77.07
2023-11-17T07:46:01.276Z,71.46
2023-11-17T07:47:01.284Z,72.02
2023-11-17T07:48:01.323Z,73.65
2023-11-17T07:49:01.272Z,69.74
2023-11-17T07:50:01.220Z,75.00
2023-11-17T07:51:01.212Z,71.02
2023-11-17T07:52:01.246Z,73.44
2023-11-17T07:53:01.189Z,69.36
2023-11-17T07:54:01.264Z,72.85
2023-11-17T07:55:01.218Z,77.15
2023-11-17T07:56:01.178Z,72.56
2023-11-17T07:57:01.169Z,68.79
2023-11-17T07:58:01.184Z,74.29
2023-11-17T07:59:01.136Z,64.10
2023-11-17T08:00:01.165Z,74.22
2023-11-17T08:01:01.179Z,71.56
2023-11-17T08:02:01.132Z,67.89
2023-11-17T08:03:01.160Z,74.22
2023-11-17T08:04:01.225Z,72.62
2023-11-17T08:05:01.191Z,67.64
2023-11-17T08:06:01.118Z,77.02
2023-11-17T08:07:01.122Z,69.95
2023-11-17T08:08:01.153Z,74.18
2023-11-17T08:09:01.115Z,70.23
2023-11-17T08:10:01.270Z,73.22
2023-11-17T08:11:01.074Z,68.44
2023-11-17T08:12:01.095Z,77.11
2023-11-17T08:13:01.134Z,73.45
2023-11-17T08:14:01.101Z,69.77
2023-11-17T08:15:01.075Z,70.79
2023-11-17T08:16:01.057Z,74.15
2023-11-17T08:17:01.102Z,70.52
2023-11-17T08:18:01.160Z,70.36
2023-11-17T08:19:10.572Z,76.82
2023-11-17T08:20:03.095Z,72.04
2023-11-17T08:21:01.061Z,71.25
2023-11-17T08:22:01.042Z,73.07
2023-11-17T08:23:01.048Z,73.41
2023-11-17T08:24:01.021Z,76.43
2023-11-17T08:25:01.060Z,70.88
2023-11-17T08:26:02.153Z,74.11
2023-11-17T08:27:00.989Z,69.32
2023-11-17T08:28:01.025Z,73.30
2023-11-17T08:29:01.022Z,67.53
2023-11-17T08:30:01.007Z,79.48
2023-11-17T08:31:01.004Z,69.51
2023-11-17T08:32:01.067Z,76.92
2023-11-17T08:33:01.054Z,70.68
2023-11-17T08:34:00.989Z,73.28
2023-11-17T08:35:00.968Z,74.19
2023-11-17T08:36:00.960Z,75.08
2023-11-17T08:37:01.000Z,69.85
2023-11-17T08:38:00.987Z,72.64
2023-11-17T08:39:00.929Z,69.44
2023-11-17T08:40:00.946Z,75.36
2023-11-17T08:41:00.945Z,75.05
2023-11-17T08:42:01.024Z,72.88
2023-11-17T08:43:00.980Z,75.71
2023-11-17T08:44:00.962Z,65.91
2023-11-17T08:45:00.911Z,73.30
2023-11-17T08:46:01.033Z,74.97
2023-11-17T08:47:00.948Z,68.22
2023-11-17T08:48:00.992Z,72.14
2023-11-17T08:49:00.909Z,72.95
2023-11-17T08:50:03.145Z,70.77
2023-11-17T08:51:01.888Z,72.67
2023-11-17T08:52:00.921Z,73.42
2023-11-17T08:53:00.853Z,73.17
2023-11-17T08:54:00.861Z,64.27
2023-11-17T08:55:00.885Z,70.91
2023-11-17T08:56:00.874Z,64.69
2023-11-17T08:57:00.863Z,72.07
2023-11-17T08:58:00.958Z,65.13
2023-11-17T08:59:00.865Z,71.38
2023-11-17T09:00:00.818Z,69.27
2023-11-17T09:01:00.956Z,72.50
2023-11-17T09:02:00.879Z,71.09
2023-11-17T09:03:00.875Z,69.20
2023-11-17T09:04:00.903Z,76.38
2023-11-17T09:05:00.828Z,70.76
2023-11-17T09:06:00.800Z,75.57
2023-11-17T09:07:00.812Z,76.70
2023-11-17T09:08:00.800Z,75.49
2023-11-17T09:09:00.802Z,63.42
2023-11-17T09:10:00.811Z,68.22
2023-11-17T09:11:00.809Z,78.85
2023-11-17T09:12:01.644Z,69.42
2023-11-17T09:13:00.828Z,71.41
2023-11-17T09:14:00.865Z,69.82
2023-11-17T09:15:00.751Z,69.26
2023-11-17T09:16:00.844Z,72.93
2023-11-17T09:17:00.781Z,68.93
2023-11-17T09:18:00.747Z,69.94
2023-11-17T09:19:00.773Z,70.76
2023-11-17T09:20:00.724Z,72.97
2023-11-17T09:21:00.719Z,70.53
2023-11-17T09:22:00.890Z,71.54
2023-11-17T09:23:00.709Z,58.74
2023-11-17T09:24:00.704Z,66.77
2023-11-17T09:25:00.720Z,75.99
2023-11-17T09:26:00.707Z,69.12
2023-11-17T09:27:00.682Z,74.40
2023-11-17T09:28:00.735Z,69.90
2023-11-17T09:29:00.684Z,73.11
2023-11-17T09:30:00.771Z,65.91
2023-11-17T09:31:00.707Z,68.83
2023-11-17T09:32:00.659Z,67.02
2023-11-17T09:33:00.809Z,65.27
2023-11-17T09:34:00.774Z,68.50
2023-11-17T09:35:00.709Z,71.06
2023-11-17T09:36:00.652Z,73.55
2023-11-17T09:37:00.669Z,65.24
2023-11-17T09:38:01.380Z,72.79
2023-11-17T09:39:00.671Z,70.47
2023-11-17T09:40:00.679Z,77.30
2023-11-17T09:41:00.602Z,75.63
2023-11-17T09:42:00.631Z,70.76
2023-11-17T09:43:00.630Z,69.63
2023-11-17T09:44:00.668Z,72.57
2023-11-17T09:45:00.573Z,76.40
2023-11-17T09:46:00.832Z,70.51
2023-11-17T09:47:00.597Z,70.61
2023-11-17T09:48:00.719Z,73.18
2023-11-17T09:49:00.686Z,68.22
2023-11-17T09:50:00.602Z,73.50
2023-11-17T09:51:00.608Z,71.65
2023-11-17T09:52:00.590Z,67.36
2023-11-17T09:53:00.574Z,70.30
2023-11-17T09:54:00.565Z,67.51
2023-11-17T09:55:00.609Z,72.55
2023-11-17T09:56:00.528Z,73.53
2023-11-17T09:57:00.867Z,68.39
2023-11-17T09:58:00.550Z,75.57
2023-11-17T09:59:00.512Z,77.23
2023-11-17T10:00:00.523Z,69.18
2023-11-17T10:01:00.598Z,70.74
2023-11-17T10:02:00.614Z,70.38
2023-11-17T10:03:01.592Z,71.87
2023-11-17T10:04:00.749Z,69.92
2023-11-17T10:05:00.576Z,74.33
2023-11-17T10:06:00.477Z,72.17
2023-11-17T10:07:00.510Z,71.27
2023-11-17T10:08:00.469Z,72.61
2023-11-17T10:09:00.476Z,66.61
2023-11-17T10:10:00.577Z,76.80
2023-11-17T10:11:00.464Z,75.46
2023-11-17T10:12:00.476Z,72.56
2023-11-17T10:13:00.452Z,71.41
2023-11-17T10:14:00.468Z,71.48
2023-11-17T10:15:00.494Z,66.86
2023-11-17T10:16:00.621Z,72.50
2023-11-17T10:17:00.596Z,65.81
2023-11-17T10:18:00.613Z,67.20
2023-11-17T10:19:00.449Z,73.91
2023-11-17T10:20:00.510Z,75.68
2023-11-17T10:21:00.430Z,63.35
2023-11-17T10:22:00.467Z,72.87
2023-11-17T10:23:00.398Z,71.94
2023-11-17T10:24:00.407Z,70.48
2023-11-17T10:25:00.454Z,77.72
2023-11-17T10:26:00.397Z,74.92
2023-11-17T10:27:00.414Z,77.76
2023-11-17T10:28:00.417Z,74.87
2023-11-17T10:29:00.398Z,71.60
2023-11-17T10:30:00.548Z,67.73
2023-11-17T10:31:00.394Z,68.91
2023-11-17T10:32:15.983Z,70.56
2023-11-17T10:33:14.291Z,74.88
2023-11-17T10:34:02.689Z,66.91
2023-11-17T10:35:00.403Z,73.55
2023-11-17T10:36:00.382Z,71.83
2023-11-17T10:37:00.395Z,68.16
2023-11-17T10:38:00.367Z,74.19
2023-11-17T10:39:00.334Z,70.81
2023-11-17T10:40:05.903Z,76.90
2023-11-17T10:41:02.341Z,65.54
2023-11-17T10:42:00.321Z,71.04
2023-11-17T10:43:00.287Z,70.58
2023-11-17T10:44:00.396Z,68.24
2023-11-17T10:45:00.284Z,72.65
2023-11-17T10:46:00.334Z,68.01
2023-11-17T10:47:00.364Z,74.11
2023-11-17T10:48:00.318Z,73.46
2023-11-17T10:49:00.586Z,69.69
2023-11-17T10:50:00.363Z,74.90
2023-11-17T10:51:00.290Z,67.63
2023-11-17T10:52:00.372Z,75.37
2023-11-17T10:53:00.243Z,74.13
2023-11-17T10:54:00.248Z,69.40
2023-11-17T10:55:00.370Z,77.76
2023-11-17T10:56:00.248Z,73.91
